createdAt,value
2019-01-27T00:02:29.706Z,219.37
2019-01-27T00:06:35.983Z,247.30
2019-01-27T00:10:45.971Z,227.10
2019-01-27T00:14:53.379Z,244.23
2019-01-27T00:19:00.283Z,248.47
2019-01-27T00:23:05.910Z,237.17
2019-01-27T00:27:15.518Z,245.80
2019-01-27T00:31:23.093Z,213.83
2019-01-27T00:35:30.956Z,202.00
2019-01-27T00:39:37.282Z,236.03
2019-01-27T00:43:44.246Z,214.80
2019-01-27T00:47:52.683Z,233.67
2019-01-27T00:51:59.281Z,212.10
2019-01-27T00:56:25.947Z,235.17
2019-01-27T01:00:32.291Z,214.13
2019-01-27T01:04:38.640Z,225.93
2019-01-27T01:08:45.805Z,242.43
2019-01-27T01:12:54.897Z,233.00
2019-01-27T01:17:04.036Z,233.33
2019-01-27T01:21:08.272Z,241.60
2019-01-27T01:25:17.564Z,211.47
2019-01-27T01:29:23.831Z,231.80
2019-01-27T01:33:30.171Z,225.27
2019-01-27T01:37:36.476Z,232.80
2019-01-27T01:41:43.652Z,240.23
2019-01-27T01:45:50.924Z,249.73
2019-01-27T01:49:57.357Z,224.97
2019-01-27T01:54:03.669Z,218.10
2019-01-27T01:58:10.195Z,254.80
2019-01-27T02:02:16.799Z,211.57
2019-01-27T02:06:23.362Z,220.57
2019-01-27T02:10:29.538Z,224.27
2019-01-27T02:14:36.734Z,241.53
2019-01-27T02:18:43.137Z,227.10
2019-01-27T02:22:49.758Z,231.60
2019-01-27T02:26:56.059Z,200.03
2019-01-27T02:31:03.104Z,219.93
2019-01-27T02:35:09.648Z,211.30
2019-01-27T02:39:16.019Z,248.00
2019-01-27T02:43:23.091Z,240.67
2019-01-27T02:47:33.623Z,213.43
2019-01-27T02:51:39.970Z,211.83
2019-01-27T02:55:46.315Z,228.33
2019-01-27T02:59:52.858Z,230.33
2019-01-27T03:04:00.187Z,226.10
2019-01-27T03:08:07.039Z,232.07
2019-01-27T03:12:13.472Z,220.20
2019-01-27T03:16:19.890Z,215.80
2019-01-27T03:20:27.918Z,203.50
2019-01-27T03:24:34.199Z,238.70
2019-01-27T03:28:40.519Z,217.50
2019-01-27T03:32:48.990Z,226.63
2019-01-27T03:36:56.945Z,186.10
2019-01-27T03:41:03.267Z,190.20
2019-01-27T03:49:20.013Z,223.53
2019-01-27T03:53:26.613Z,206.80
2019-01-27T03:57:33.313Z,223.50
2019-01-27T04:01:39.663Z,204.90
2019-01-27T04:05:49.167Z,227.93
2019-01-27T04:09:57.007Z,210.70
2019-01-27T04:14:03.297Z,214.47
2019-01-27T04:18:10.656Z,252.57
2019-01-27T04:22:16.887Z,233.80
2019-01-27T04:26:24.179Z,225.30
2019-01-27T04:30:33.406Z,234.30
2019-01-27T04:34:39.796Z,216.37
2019-01-27T04:38:46.147Z,171.67
2019-01-27T04:43:13.709Z,144.77
2019-01-27T04:47:19.988Z,230.17
2019-01-27T04:51:29.161Z,237.23
2019-01-27T04:55:37.659Z,220.87
2019-01-27T04:59:47.639Z,200.70
2019-01-27T05:04:07.229Z,174.60
2019-01-27T05:08:13.826Z,223.13
2019-01-27T05:12:20.112Z,138.80
2019-01-27T05:16:28.656Z,203.33
2019-01-27T05:20:35.300Z,228.73
2019-01-27T05:24:41.936Z,182.00
2019-01-27T05:28:48.262Z,204.27
2019-01-27T05:32:55.948Z,197.87
2019-01-27T05:37:05.157Z,212.37
2019-01-27T05:41:11.552Z,175.43
2019-01-27T05:45:17.915Z,166.87
2019-01-27T05:49:25.241Z,170.83
2019-01-27T05:53:32.500Z,191.43
2019-01-27T05:57:38.812Z,150.80
2019-01-27T06:01:45.114Z,231.30
2019-01-27T06:05:51.653Z,197.27
2019-01-27T06:09:57.930Z,167.60
2019-01-27T06:14:04.279Z,237.53
2019-01-27T06:18:10.568Z,250.53
2019-01-27T06:22:17.568Z,191.27
2019-01-27T06:26:23.844Z,234.13
2019-01-27T06:30:30.187Z,255.07
2019-01-27T06:34:35.810Z,194.97
2019-01-27T06:38:42.929Z,243.97
2019-01-27T06:42:49.448Z,227.30
2019-01-27T06:46:55.781Z,225.00
2019-01-27T06:51:02.087Z,252.67
2019-01-27T06:55:12.405Z,288.23
2019-01-27T06:59:25.600Z,212.53
2019-01-27T07:03:49.930Z,299.80
2019-01-27T07:08:07.984Z,292.70
2019-01-27T07:12:34.178Z,219.17
2019-01-27T07:16:47.940Z,69.00
2019-01-27T07:21:04.161Z,259.50
2019-01-27T07:25:30.613Z,288.87
2019-01-27T07:29:56.430Z,306.50
2019-01-27T07:34:08.961Z,308.97
2019-01-27T07:38:23.518Z,305.47
2019-01-27T07:42:48.768Z,302.10
2019-01-27T07:46:59.224Z,239.03
2019-01-27T07:51:18.388Z,293.03
2019-01-27T07:55:38.512Z,302.87
2019-01-27T08:04:40.040Z,306.83
2019-01-27T08:08:58.752Z,303.80
2019-01-27T08:13:25.110Z,329.87
2019-01-27T08:17:45.607Z,282.63
2019-01-27T08:22:07.077Z,339.20
2019-01-27T08:26:23.065Z,344.73
2019-01-27T08:30:48.469Z,316.73
2019-01-27T08:35:03.362Z,312.17
2019-01-27T08:39:24.406Z,290.50
2019-01-27T08:43:43.810Z,313.43
2019-01-27T08:47:50.271Z,301.50
2019-01-27T08:51:58.076Z,349.57
2019-01-27T08:56:10.954Z,351.50
2019-01-27T09:00:28.948Z,342.00
2019-01-27T09:04:54.293Z,371.97
2019-01-27T09:09:20.465Z,346.23
2019-01-27T09:13:39.125Z,343.37
2019-01-27T09:17:59.988Z,313.40
2019-01-27T09:22:26.142Z,290.97
2019-01-27T09:26:40.717Z,353.47
2019-01-27T09:30:59.445Z,316.50
2019-01-27T09:35:20.009Z,341.70
2019-01-27T09:39:42.272Z,356.03
2019-01-27T09:43:58.724Z,340.20
2019-01-27T09:48:21.422Z,339.07
2019-01-27T09:52:37.775Z,324.50
2019-01-27T09:57:03.593Z,338.40
2019-01-27T10:05:46.136Z,357.17
2019-01-27T10:10:06.810Z,381.13
2019-01-27T10:14:23.725Z,354.00
2019-01-27T10:18:43.368Z,382.53
2019-01-27T10:23:01.707Z,294.07
2019-01-27T10:27:27.005Z,321.53
2019-01-27T10:31:43.828Z,336.13
2019-01-27T10:36:00.157Z,360.20
2019-01-27T10:40:26.063Z,306.03
2019-01-27T10:44:50.907Z,323.90
2019-01-27T10:49:20.365Z,237.67
2019-01-27T10:53:46.362Z,315.03
2019-01-27T10:58:10.956Z,316.97
2019-01-27T11:02:47.395Z,250.60
2019-01-27T11:07:25.063Z,301.87
2019-01-27T11:11:41.952Z,289.23
2019-01-27T11:15:58.689Z,269.80
2019-01-27T11:20:25.121Z,244.33
2019-01-27T11:24:58.975Z,242.47
2019-01-27T11:29:33.010Z,253.83
2019-01-27T11:33:57.615Z,250.37
2019-01-27T11:38:21.325Z,263.63
2019-01-27T11:42:46.924Z,266.07
2019-01-27T11:47:12.120Z,218.83
2019-01-27T11:51:30.163Z,212.13
2019-01-27T11:55:36.457Z,216.93
2019-01-27T11:59:45.018Z,216.53
2019-01-27T12:03:51.448Z,199.70
2019-01-27T12:07:59.196Z,197.37
2019-01-27T12:12:05.460Z,252.57
2019-01-27T12:16:12.772Z,225.10
2019-01-27T12:20:20.227Z,223.87
2019-01-27T12:24:27.852Z,228.70
2019-01-27T12:28:34.198Z,203.80
2019-01-27T12:32:40.641Z,251.53
2019-01-27T12:36:47.044Z,230.53
2019-01-27T12:40:55.470Z,211.07
2019-01-27T12:49:08.788Z,193.20
2019-01-27T12:53:16.982Z,213.20
2019-01-27T12:57:24.767Z,204.60
2019-01-27T13:01:31.338Z,202.33
2019-01-27T13:05:44.879Z,198.63
2019-01-27T13:09:51.274Z,171.10
2019-01-27T13:14:01.494Z,184.90
2019-01-27T13:18:07.903Z,148.70
2019-01-27T13:22:14.319Z,158.87
2019-01-27T13:26:20.728Z,148.77
2019-01-27T13:30:27.770Z,118.43
2019-01-27T13:34:35.686Z,156.43
2019-01-27T13:38:41.388Z,120.23
2019-01-27T13:42:48.097Z,131.13
2019-01-27T13:46:55.466Z,118.97
2019-01-27T13:51:06.076Z,110.70
2019-01-27T13:55:25.009Z,129.43
2019-01-27T13:59:31.306Z,124.63
2019-01-27T14:03:40.157Z,118.03
2019-01-27T14:07:47.508Z,106.67
2019-01-27T14:11:53.843Z,120.33
2019-01-27T14:16:00.208Z,112.90
2019-01-27T14:20:09.144Z,91.10
2019-01-27T14:24:15.481Z,116.40
2019-01-27T14:32:30.174Z,125.40
2019-01-27T14:36:37.046Z,118.30
2019-01-27T14:40:44.857Z,126.80
2019-01-27T14:44:51.288Z,114.87
2019-01-27T14:48:57.659Z,122.73
2019-01-27T14:57:13.598Z,111.13
2019-01-27T15:01:20.406Z,124.43
2019-01-27T15:05:32.421Z,108.50
2019-01-27T15:09:39.281Z,115.80
2019-01-27T15:13:45.614Z,114.83
2019-01-27T15:17:54.373Z,102.13
2019-01-27T15:22:00.826Z,118.30
2019-01-27T15:26:08.511Z,119.67
2019-01-27T15:30:24.776Z,110.80
2019-01-27T15:34:51.020Z,117.77
2019-01-27T15:38:58.318Z,109.93
2019-01-27T15:43:05.985Z,112.00
2019-01-27T15:47:15.346Z,106.47
2019-01-27T15:51:21.765Z,117.47
2019-01-27T15:55:28.233Z,117.53
2019-01-27T16:04:21.458Z,101.37
2019-01-27T16:08:27.917Z,122.57
2019-01-27T16:12:36.096Z,99.87
2019-01-27T16:16:42.405Z,104.93
2019-01-27T16:20:50.170Z,116.97
2019-01-27T16:24:56.482Z,120.50
2019-01-27T16:29:02.975Z,81.43
2019-01-27T16:33:12.368Z,98.57
2019-01-27T16:37:20.174Z,114.17
2019-01-27T16:41:26.731Z,101.17
2019-01-27T16:45:33.095Z,95.83
2019-01-27T16:49:39.380Z,118.93
2019-01-27T16:53:45.811Z,102.03
2019-01-27T16:57:53.314Z,107.87
2019-01-27T17:02:00.561Z,96.57
2019-01-27T17:06:07.582Z,102.77
2019-01-27T17:10:15.534Z,99.93
2019-01-27T17:14:22.041Z,102.33
2019-01-27T17:18:28.665Z,98.77
2019-01-27T17:22:36.821Z,102.73
2019-01-27T17:26:47.406Z,85.40
2019-01-27T17:30:53.735Z,78.27
2019-01-27T17:35:00.497Z,78.47
2019-01-27T17:39:10.474Z,87.87
2019-01-27T17:43:17.152Z,68.93
2019-01-27T17:47:23.522Z,82.20
2019-01-27T17:51:29.883Z,90.57
2019-01-27T17:55:42.885Z,84.57
2019-01-27T18:00:21.961Z,81.60
2019-01-27T18:04:47.477Z,72.00
2019-01-27T18:09:15.600Z,87.07
2019-01-27T18:13:44.830Z,81.93
2019-01-27T18:17:52.838Z,68.73
2019-01-27T18:21:59.139Z,86.40
2019-01-27T18:26:07.588Z,78.63
2019-01-27T18:30:17.411Z,67.00
2019-01-27T18:34:23.992Z,62.87
2019-01-27T18:38:30.315Z,72.03
2019-01-27T18:42:37.677Z,86.67
2019-01-27T18:46:44.086Z,83.30
2019-01-27T18:50:51.642Z,80.67
2019-01-27T18:55:05.806Z,72.37
2019-01-27T18:59:19.206Z,75.53
2019-01-27T19:03:44.906Z,80.60
2019-01-27T19:08:17.875Z,65.93
2019-01-27T19:12:58.505Z,80.03
2019-01-27T19:17:31.577Z,76.17
2019-01-27T19:22:11.688Z,70.17
2019-01-27T19:26:36.378Z,81.30
2019-01-27T19:30:48.429Z,80.53
2019-01-27T19:35:12.321Z,73.13
2019-01-27T19:39:37.610Z,69.73
2019-01-27T19:44:08.986Z,74.77
2019-01-27T19:48:37.105Z,71.83
2019-01-27T19:52:55.656Z,69.33
2019-01-27T19:57:29.910Z,57.70
2019-01-27T20:02:05.184Z,68.23
2019-01-27T20:06:16.136Z,66.60
2019-01-27T20:10:59.769Z,77.83
2019-01-27T20:15:15.837Z,75.40
2019-01-27T20:19:41.310Z,86.67
2019-01-27T20:24:06.554Z,75.80
2019-01-27T20:28:22.946Z,77.73
2019-01-27T20:37:26.077Z,78.77
2019-01-27T20:41:44.510Z,82.23
2019-01-27T20:46:03.193Z,75.50
2019-01-27T20:50:30.398Z,85.20
2019-01-27T20:54:45.678Z,82.23
2019-01-27T20:59:43.380Z,81.47
2019-01-27T21:03:57.457Z,78.90
2019-01-27T21:08:25.048Z,93.93
2019-01-27T21:17:11.266Z,92.57
2019-01-27T21:21:18.579Z,77.77
2019-01-27T21:25:26.684Z,80.60
2019-01-27T21:29:33.101Z,87.20
2019-01-27T21:33:40.782Z,89.83
2019-01-27T21:37:47.907Z,60.27
2019-01-27T21:41:55.171Z,78.23
2019-01-27T21:46:01.514Z,75.73
2019-01-27T21:50:13.376Z,80.27
2019-01-27T21:54:19.755Z,86.20
2019-01-27T21:59:05.909Z,88.37
2019-01-27T22:03:14.215Z,70.30
2019-01-27T22:07:22.433Z,90.40
2019-01-27T22:11:28.721Z,77.60
2019-01-27T22:15:35.137Z,58.53
2019-01-27T22:19:41.451Z,88.43
2019-01-27T22:23:50.750Z,71.43
2019-01-27T22:27:57.054Z,86.70
2019-01-27T22:32:05.451Z,83.00
2019-01-27T22:36:11.875Z,84.70
2019-01-27T22:40:21.193Z,83.43
2019-01-27T22:44:27.576Z,85.43
2019-01-27T22:48:35.317Z,80.03
2019-01-27T22:52:42.031Z,91.80
2019-01-27T22:56:49.169Z,81.00
2019-01-27T23:01:01.494Z,84.67
2019-01-27T23:05:09.834Z,77.97
2019-01-27T23:09:20.467Z,79.33
2019-01-27T23:13:27.446Z,93.50
2019-01-27T23:17:33.771Z,75.10
2019-01-27T23:21:40.247Z,78.60
2019-01-27T23:25:46.498Z,85.03
2019-01-27T23:29:55.417Z,85.93
2019-01-27T23:34:01.915Z,80.40
2019-01-27T23:38:08.350Z,81.93
2019-01-27T23:42:14.686Z,76.20
2019-01-27T23:46:24.659Z,84.50
2019-01-27T23:50:31.265Z,81.60
2019-01-27T23:54:37.615Z,88.13
2019-01-27T23:58:43.934Z,81.17
